Tiempo atmosférico en la estación meteorológica de Areso, Navarra (520 m.)



Fecha
DESCASC
Temp. máxima en grados centígrados (hora)
DESCASC
Temp. mínima en grados centígrados (hora)
DESCASC
Temp. media en grados centígrados
DESCASC
Racha de viento máxima en m/sg (hora)
DESCASC
Velocidad máxima media en intervalos de 10 minutos(hora)
DESCASC
Precipitaciones diarias en mm
DESCASC
Precipitaciones de 00:00 a 06:00 en mm
DESCASC
Precipitaciones de 06:00 a 12:00 en mm
DESCASC
Precipitaciones de 12:00 a 18:00 en mm
DESCASC
Precipitaciones de 18:00 a 24:00 en mm
DESCASC
08-12-2019 10.1 (13:20) 5.9 (02:00) 8 7.78 (18:00) 1.94 (18:00) 9.8 0 0 9.6 0.2
07-12-2019 14.7 (14:40) 3.8 (08:50) 9.2 3.61 (14:10) 1.67 (14:10) 0 0 0 0 0
06-12-2019 13.1 (15:30) 1.9 (05:10) 7.5 13.06 (13:20) 6.67 (13:50) 0 0 0 0 0
05-12-2019 10.9 (13:30) 4.2 (00:00) 7.5 3.61 (15:30) 1.94 (12:00) 0.2 0 0.2 0 0
04-12-2019 12.5 (13:10) 2.5 (00:00) 7.5 5.28 (18:20) 2.22 (13:40) 0.2 0 0 0 0.2
03-12-2019 4.1 (15:00) -0.7 (-00:0) 1.7 3.33 (11:10) 1.11 (02:10) 1.4 1.4 0 0 0
02-12-2019 7.2 (12:00) 3.2 (00:00) 5.2 4.72 (13:50) 1.67 (12:00) 2.4 0 0.2 2 0.2
01-12-2019 12 (12:40) 4 (00:00) 8 4.17 (12:30) 2.78 (12:30) 0.2 0.2 0 0 0
30-11-2019 12.6 (11:10) 4.4 (00:00) 8.5 13.89 (10:40) 8.06 (10:40) 23.2 0 0 21.6 1.6
29-11-2019 14.5 (13:30) 6.6 (00:00) 10.5 4.44 (13:20) 2.22 (13:20) 1.8 1.8 0 0 0
28-11-2019 13.6 (17:00) 8.3 (00:00) 11 8.33 (05:20) 3.33 (01:50) 4.8 0 0 2 2.8
27-11-2019 15 (00:10) 7.8 (00:00) 11.4 11.94 (01:50) 5.83 (15:40) 1.6 0 0 0.2 1.4
26-11-2019 16.1 (22:20) 8.9 (00:00) 12.5 17.78 (23:00) 8.89 (21:10) 0.4 0 0 0 0.4
25-11-2019 15.5 (12:40) 6.9 (00:00) 11.2 5.28 (13:00) 3.33 (04:40) 0.2 0.2 0 0 0
24-11-2019 10.5 (16:30) 5.4 (00:00) 8 9.72 (01:40) 3.06 (01:40) 26.2 16.8 6.2 0.2 3
23-11-2019 11.1 (03:10) 6.7 (00:00) 8.9 10 (08:10) 4.72 (02:30) 38.2 2.6 26.4 4.2 5
22-11-2019 11.2 (23:20) 7.4 (00:00) 9.3 15.83 (15:10) 7.5 (14:10) 5.8 0 0 1.4 4.4
21-11-2019 10.6 (16:00) 6.1 (00:00) 8.4 11.67 (02:20) 6.67 (06:10) 0 0 0 0 0
20-11-2019 9.5 (15:20) 5 (00:00) 7.3 16.11 (12:40) 8.33 (10:20) 0 0 0 0 0
19-11-2019 10.9 (16:00) 1 (00:00) 5.9 5 (23:40) 2.5 (23:20) 0 0 0 0 0
18-11-2019 5.9 (11:40) 1.2 (00:00) 3.6 7.78 (02:10) 2.5 (04:10) 11.8 9.6 1.4 0.4 0.4
17-11-2019 8.1 (14:30) 4.5 (00:00) 6.3 8.33 (15:00) 3.89 (15:30) 13.8 6.6 2 1.8 3.4
16-11-2019 5.1 (22:50) -0.3 (00:00) 2.4 8.33 (20:00) 3.61 (17:00) 30.8 0.8 11.4 15.4 3.2
15-11-2019 6.4 (14:00) 0.2 (00:00) 3.3 10.83 (10:40) 4.17 (10:40) 20.8 0.8 6.8 5.4 7.8
14-11-2019 10 (01:00) 2.3 (00:00) 6.1 7.78 (12:50) 4.44 (12:50) 22.4 20.4 0.6 0 1.4
13-11-2019 10.6 (14:10) 6 (00:00) 8.3 5.56 (12:40) 2.22 (12:40) 7 3 4 0 0
12-11-2019 8.4 (15:00) 5.6 (00:00) 7 5.56 (11:10) 2.78 (11:10) 12.2 5.4 6 0.4 0.4
11-11-2019 8.3 (14:00) 2.2 (00:40) 5.3 7.78 (15:30) 2.78 (14:20) 10.4 0 1.8 5.8 2.8

Gráficas

Temp. máximas Temp. mínimas Temp. medias Precipitaciones Rachas de viento máximas Velocidades máximas media en intervalos de 10 minutos

Datos horarios

Fecha y hora oficial Temperatura (ºC) Velocidad del viento (km/h) Dirección del viento Racha (km/h) Dirección de racha Precipitación (mm) Presión (hPa) Tendencia (hPa) Humedad (%)
2019-12-10 23:00:00 6.9 0 Calma 2 Sudeste 0 -- -- 82
2019-12-10 22:00:00 6.3 0 Calma 2 Sudeste 0 -- -- 81
2019-12-10 21:00:00 6.2 0 Calma 2 Sudeste 0 -- -- 82
2019-12-10 20:00:00 6.5 0 Calma 2 Sudeste 0 -- -- 79
2019-12-10 19:00:00 6.8 0 Calma 0 Calma 0 -- -- 80
2019-12-10 18:00:00 8.5 0 Calma 2 Sudeste 0 -- -- 76
2019-12-10 17:00:00 10.4 0 Calma 2 Sudeste 0 -- -- 76
2019-12-10 16:00:00 12.7 0 Calma 3 Sudeste 0 -- -- 73
2019-12-10 15:00:00 13.8 0 Calma 5 Sudeste 0 -- -- 66
2019-12-10 14:00:00 13.1 2 Sudeste 5 Este 0 -- -- 68
2019-12-10 13:00:00 11.5 0 Calma 5 Este 0 -- -- 77
2019-12-10 12:00:00 9.4 2 Este 5 Este 0 -- -- 88
2019-12-10 11:00:00 6.9 0 Calma 3 Este 0 -- -- 100
2019-12-10 10:00:00 3.8 0 Calma 2 Nordeste 0.2 -- -- 100
2019-12-10 09:00:00 3.8 0 Calma 2 Nordeste 0 -- -- 100
2019-12-10 08:00:00 4 0 Calma 2 Nordeste 0 -- -- 100
2019-12-10 07:00:00 4.3 0 Calma 4 Nordeste 0 -- -- 100
2019-12-10 06:00:00 5.3 0 Calma 3 Este 0 -- -- 100
2019-12-10 05:00:00 6.3 0 Calma 4 Sudeste 0 -- -- 100
2019-12-10 04:00:00 6.7 0 Calma 8 Este 1.2 -- -- 100
2019-12-10 03:00:00 6.7 2 Sudeste 5 Sudeste 0.8 -- -- 100
2019-12-10 02:00:00 6.8 2 Sudeste 8 Sur 1.4 -- -- 100
2019-12-10 01:00:00 6.9 2 Sur 22 Noroeste 0.2 -- -- 98
2019-12-10 00:00:00 7 3 Sudoeste 10 Noroeste 0.8 -- -- 100
2019-12-09 23:00:00 7.1 3 Sur 13 Oeste 0 -- -- 97
2019-12-09 22:00:00 7.1 7 Sudoeste 23 Oeste 1.2 -- -- 97
2019-12-09 21:00:00 7.2 3 Sur 16 Noroeste 0.4 -- -- 98
2019-12-09 20:00:00 7.7 5 Sudoeste 18 Norte 0.6 -- -- 95
2019-12-09 19:00:00 7.8 4 Sudoeste 20 Sur 0.2 -- -- 93
2019-12-09 18:00:00 7.3 4 Sur 23 Sudeste 0.2 -- -- 94
2019-12-09 17:00:00 8.1 8 Sur 31 Noroeste 1.2 -- -- 89
2019-12-09 16:00:00 9.1 10 Oeste 40 Oeste 0 -- -- 75
2019-12-09 15:00:00 9.2 10 Oeste 46 Sudoeste 0 -- -- 76
2019-12-09 14:00:00 8.9 7 Sudeste 30 Este 0 -- -- 82
2019-12-09 13:00:00 9 7 Sur 36 Oeste 0.2 -- -- 82
2019-12-09 12:00:00 9 9 Oeste 28 Noroeste 0 -- -- 81
2019-12-09 11:00:00 8.4 12 Sudoeste 31 Oeste 1 -- -- 88
2019-12-09 10:00:00 8.3 7 Noroeste 24 Norte 0 -- -- 86
2019-12-09 09:00:00 8 4 Norte 35 Noroeste 1.8 -- -- 94
2019-12-09 08:00:00 8.1 8 Norte 32 Norte 1.2 -- -- 91
2019-12-09 07:00:00 8.3 7 Norte 21 Noroeste 0.2 -- -- 89
2019-12-09 06:00:00 8.1 4 Nordeste 22 Noroeste 0 -- -- 85
2019-12-09 05:00:00 7.7 5 Sudoeste 20 Sudoeste 0 -- -- 90
2019-12-09 04:00:00 4.8 4 Norte 12 Norte 0 -- -- 100
2019-12-09 03:00:00 4.5 0 Calma 2 Norte 0 -- -- 100
2019-12-09 02:00:00 5.5 0 Calma 4 Norte 0 -- -- 98
2019-12-09 01:00:00 7 0 Calma 14 Noroeste 0 -- -- 93
2019-12-09 00:00:00 7.7 0 Calma 6 Noroeste 0 -- -- 95
2019-12-08 23:00:00 8.1 0 Calma 17 Noroeste 0 -- -- 94
2019-12-08 22:00:00 8.3 5 Norte 16 Sudoeste 0 -- -- 93
2019-12-08 21:00:00 8.4 0 Calma 7 Nordeste 0 -- -- 99
2019-12-08 20:00:00 8.8 2 Nordeste 9 Noroeste 0 -- -- 99
2019-12-08 19:00:00 9.2 0 Calma 14 Este 0.2 -- -- 100
2019-12-08 18:00:00 9.7 7 Este 28 Este 1.6 -- -- 100
2019-12-08 17:00:00 9.9 0 Calma 4 Oeste 2 -- -- 100
2019-12-08 16:00:00 9.6 0 Calma 4 Noroeste 1.8 -- -- 100
2019-12-08 15:00:00 9.9 0 Calma 3 Noroeste 2.4 -- -- 99
2019-12-08 14:00:00 9.9 0 Calma 3 Noroeste 1.2 -- -- 96
2019-12-08 13:00:00 9.9 0 Calma 3 Noroeste 0.6 -- -- 94
2019-12-08 12:00:00 9.7 0 Calma 3 Noroeste 0 -- -- 87
2019-12-08 11:00:00 9.3 0 Calma 3 Noroeste 0 -- -- 87
2019-12-08 10:00:00 7.7 0 Calma 2 Noroeste 0 -- -- 98
2019-12-08 09:00:00 6.5 0 Calma 4 Noroeste 0 -- -- 96
2019-12-08 08:00:00 6.9 0 Calma 4 Norte 0 -- -- 93
2019-12-08 07:00:00 6.2 0 Calma 2 Noroeste 0 -- -- 96
2019-12-08 06:00:00 6.6 0 Calma 3 Noroeste 0 -- -- 97
2019-12-08 05:00:00 6 0 Calma 3 Noroeste 0 -- -- 100
2019-12-08 04:00:00 6.1 0 Calma 2 Noroeste 0 -- -- 100
2019-12-08 03:00:00 5.9 0 Calma 0 Calma 0 -- -- 100
2019-12-08 02:00:00 5.9 0 Calma 0 Calma 0 -- -- 99
2019-12-08 01:00:00 6.5 0 Calma 3 Noroeste 0 -- -- 99
2019-12-08 00:00:00 6.4 0 Calma 2 Noroeste 0 -- -- 98
2019-12-07 23:00:00 6.9 0 Calma 2 Noroeste 0 -- -- 95
2019-12-07 22:00:00 8 0 Calma 5 Noroeste 0 -- -- 92
2019-12-07 21:00:00 9.1 0 Calma 3 Noroeste 0 -- -- 89
2019-12-07 20:00:00 9.5 0 Calma 3 Oeste 0 -- -- 88
2019-12-07 19:00:00 9.7 0 Calma 4 Noroeste 0 -- -- 85
2019-12-07 18:00:00 9.9 0 Calma 3 Noroeste 0 -- -- 82
2019-12-07 17:00:00 12.3 0 Calma 4 Noroeste 0 -- -- 72
2019-12-07 16:00:00 13 0 Calma 9 Noroeste 0 -- -- 71
2019-12-07 15:00:00 14.4 4 Noroeste 13 Oeste 0 -- -- 63
2019-12-07 14:00:00 14 5 Noroeste 11 Sudoeste 0 -- -- 69
2019-12-07 13:00:00 12.9 2 Nordeste 9 Este 0 -- -- 78
2019-12-07 12:00:00 10.1 0 Calma 4 Nordeste 0 -- -- 86
2019-12-07 11:00:00 8.1 0 Calma 3 Nordeste 0 -- -- 96
2019-12-07 10:00:00 5.2 0 Calma -- -- 0 -- -- 100
2019-12-07 09:00:00 4.1 0 Calma 0 Calma 0 -- -- 100
2019-12-07 08:00:00 4 0 Calma 2 Nordeste 0 -- -- 99
2019-12-07 07:00:00 4.5 0 Calma 2 Noroeste 0 -- -- 99
2019-12-07 06:00:00 5 0 Calma 0 Calma 0 -- -- 98
2019-12-07 05:00:00 5.2 0 Calma 2 Noroeste 0 -- -- 97
2019-12-07 04:00:00 5.5 0 Calma 2 Norte 0 -- -- 96
2019-12-07 03:00:00 6 0 Calma 2 Nordeste 0 -- -- 94
2019-12-07 02:00:00 7 0 Calma 2 Nordeste 0 -- -- 92
2019-12-07 01:00:00 7.4 0 Calma 4 Noroeste 0 -- -- 90
2019-12-07 00:00:00 6.9 0 Calma 4 Norte 0 -- -- 92
2019-12-06 23:00:00 7.1 0 Calma 6 Noroeste 0 -- -- 90
2019-12-06 22:00:00 7 0 Calma 8 Noroeste 0 -- -- 88
2019-12-06 21:00:00 8.4 5 Noroeste 11 Noroeste 0 -- -- 81
2019-12-06 20:00:00 7.9 0 Calma 11 Oeste 0 -- -- 83
2019-12-06 19:00:00 9.6 4 Sudoeste 17 Oeste 0 -- -- 75
2019-12-06 18:00:00 10.8 9 Sudoeste 23 Oeste 0 -- -- 70
2019-12-06 17:00:00 11.6 11 Sudoeste 27 Sudoeste 0 -- -- 68
2019-12-06 16:00:00 12.5 9 Sudoeste 31 Sudeste 0 -- -- 65
2019-12-06 15:00:00 12.9 15 Sudoeste 33 Sudoeste 0 -- -- 63
2019-12-06 14:00:00 12.6 19 Sur 47 Sudoeste 0 -- -- 64
2019-12-06 13:00:00 12 15 Sudoeste 34 Sudoeste 0 -- -- 64
2019-12-06 12:00:00 11.5 20 Sur 39 Sudeste 0 -- -- 66
2019-12-06 11:00:00 11.2 15 Sudoeste 32 Sudoeste 0 -- -- 68
2019-12-06 10:00:00 7.6 10 Oeste 19 Oeste 0 -- -- 91
2019-12-06 09:00:00 3.2 0 Calma 4 Noroeste 0 -- -- 100
2019-12-06 08:00:00 2.3 0 Calma 3 Noroeste 0 -- -- 100
2019-12-06 07:00:00 2.4 0 Calma 2 Noroeste 0 -- -- 100
2019-12-06 06:00:00 2.1 0 Calma 2 Noroeste 0 -- -- 100
2019-12-06 05:00:00 2 0 Calma 0 Calma 0 -- -- 100
2019-12-06 04:00:00 2.4 0 Calma 2 Noroeste 0 -- -- 100
2019-12-06 03:00:00 2.8 0 Calma 0 Calma 0 -- -- 100
2019-12-06 02:00:00 3.2 0 Calma 3 Noroeste 0 -- -- 100
2019-12-06 01:00:00 3.7 0 Calma 2 Noroeste 0 -- -- 100
2019-12-06 00:00:00 4.2 0 Calma 2 Noroeste 0 -- -- 100
2019-12-05 23:00:00 5 0 Calma 2 Noroeste 0 -- -- 99
2019-12-05 22:00:00 6 2 Noroeste 5 Noroeste 0 -- -- 99
2019-12-05 21:00:00 6.6 0 Calma 5 Sur 0 -- -- 99
2019-12-05 20:00:00 6.7 0 Calma 6 Sur 0 -- -- 98
2019-12-05 19:00:00 6.6 0 Calma 5 Sur 0 -- -- 97
2019-12-05 18:00:00 7.7 0 Calma 5 Sur 0 -- -- 90
2019-12-05 17:00:00 9.1 0 Calma 6 Norte 0 -- -- 82
2019-12-05 16:00:00 10.7 4 Oeste 13 Norte 0 -- -- 77
2019-12-05 15:00:00 9.7 2 Oeste 12 Noroeste 0 -- -- 80
2019-12-05 14:00:00 10.8 3 Norte 12 Norte 0 -- -- 75
2019-12-05 13:00:00 10.3 4 Norte 13 Nordeste 0 -- -- 76
2019-12-05 12:00:00 9.4 7 Sudoeste 12 Sudoeste 0 -- -- 85
2019-12-05 11:00:00 7.7 4 Sur 6 Sur 0 -- -- 92
2019-12-05 10:00:00 6 0 Calma 4 Nordeste 0 -- -- 100
2019-12-05 09:00:00 5.6 0 Calma 5 Sudeste 0 -- -- 100
2019-12-05 08:00:00 5.5 0 Calma 8 Noroeste 0 -- -- 100
2019-12-05 07:00:00 5.3 0 Calma 6 Noroeste 0.2 -- -- 100
2019-12-05 06:00:00 5.2 0 Calma 6 Sudeste 0 -- -- 100
2019-12-05 05:00:00 5.1 2 Este 6 Nordeste 0 -- -- 100
2019-12-05 04:00:00 5.1 2 Este 4 Este 0 -- -- 100
2019-12-05 03:00:00 4.9 2 Este 8 Nordeste 0 -- -- 100
2019-12-05 02:00:00 4.8 0 Calma 2 Sudeste 0 -- -- 100
2019-12-05 01:00:00 4.8 0 Calma 8 Este 0 -- -- 100
2019-12-05 00:00:00 4.8 4 Sudeste 8 Sudeste 0 -- -- 99
2019-12-04 23:00:00 4.9 2 Este 7 Nordeste 0 -- -- 100
2019-12-04 22:00:00 5.5 0 Calma 9 Nordeste 0 -- -- 100
2019-12-04 21:00:00 6.1 3 Sur 12 Este 0 -- -- 100
2019-12-04 20:00:00 6.4 3 Sur 15 Sudoeste 0.2 -- -- 99
2019-12-04 19:00:00 6.8 3 Sudoeste 19 Oeste 0 -- -- 93
2019-12-04 18:00:00 6.7 5 Sur 16 Sudoeste 0 -- -- 95
2019-12-04 17:00:00 7.3 6 Sudeste 14 Este 0 -- -- 89
2019-12-04 16:00:00 9.8 0 Calma 8 Sudoeste 0 -- -- 70
2019-12-04 15:00:00 10.7 2 Nordeste 15 Nordeste 0 -- -- 61
2019-12-04 14:00:00 11.2 5 Nordeste 15 Nordeste 0 -- -- 65
2019-12-04 13:00:00 12.3 5 Este 11 Este 0 -- -- 66
2019-12-04 12:00:00 9.7 2 Oeste 4 Oeste 0 -- -- 80
2019-12-04 11:00:00 6.8 0 Calma 4 Oeste 0 -- -- 94
2019-12-04 10:00:00 3.7 0 Calma 2 Noroeste 0 -- -- 100
2019-12-04 09:00:00 2.5 0 Calma 3 Oeste 0 -- -- 100
2019-12-04 08:00:00 2.8 0 Calma 5 Noroeste 0 -- -- 99
2019-12-04 07:00:00 2.9 0 Calma 3 Nordeste 0 -- -- 98
2019-12-04 06:00:00 3.4 0 Calma 5 Este 0 -- -- 94
2019-12-04 05:00:00 4.5 2 Nordeste 14 Norte 0 -- -- 89
2019-12-04 04:00:00 4.8 3 Oeste 11 Noroeste 0 -- -- 86
2019-12-04 03:00:00 4.5 2 Noroeste 9 Noroeste 0 -- -- 89
2019-12-04 02:00:00 4.3 2 Noroeste 12 Oeste 0 -- -- 87
2019-12-04 01:00:00 5 5 Oeste 12 Noroeste 0 -- -- 84
2019-12-04 00:00:00 2.7 2 Oeste 6 Oeste 0 -- -- 100
2019-12-03 23:00:00 0 0 Calma 3 Noroeste 0 -- -- 100
2019-12-03 22:00:00 -0.6 0 Calma 2 Noroeste 0 -- -- 100
2019-12-03 21:00:00 -0.4 0 Calma 2 Noroeste 0 -- -- 100
2019-12-03 20:00:00 0.2 0 Calma 2 Norte 0 -- -- 100
2019-12-03 19:00:00 1.1 0 Calma 6 Noroeste 0 -- -- 99
2019-12-03 18:00:00 2.1 0 Calma 4 Nordeste 0 -- -- 95
2019-12-03 17:00:00 3.8 0 Calma 4 Nordeste 0 -- -- 88
2019-12-03 16:00:00 4.1 0 Calma 5 Este 0 -- -- 90
2019-12-03 15:00:00 4.1 0 Calma 3 Este 0 -- -- 92
2019-12-03 14:00:00 3.8 0 Calma 4 Nordeste 0 -- -- 94
2019-12-03 13:00:00 3.2 0 Calma 7 Nordeste 0 -- -- 95
2019-12-03 12:00:00 2.8 2 Este 12 Nordeste 0 -- -- 97
2019-12-03 11:00:00 2.7 2 Nordeste 7 Nordeste 0 -- -- 97
2019-12-03 10:00:00 2.6 0 Calma 7 Este 0 -- -- 98
2019-12-03 09:00:00 2.5 0 Calma 4 Norte 0 -- -- 99
2019-12-03 08:00:00 2.6 2 Norte 7 Noroeste 0 -- -- 97
2019-12-03 07:00:00 2.5 0 Calma 6 Norte 0 -- -- 99
2019-12-03 06:00:00 2.4 0 Calma 7 Este 0 -- -- 100
2019-12-03 05:00:00 2.4 0 Calma 7 Norte 0 -- -- 100
2019-12-03 04:00:00 2.5 0 Calma 5 Nordeste 0 -- -- 100
2019-12-03 03:00:00 2.5 2 Nordeste 10 Este 0.2 -- -- 100
2019-12-03 02:00:00 2.7 2 Nordeste 10 Nordeste 0.4 -- -- 100
2019-12-03 01:00:00 3 3 Este 9 Nordeste 0.8 -- -- 100
2019-12-03 00:00:00 3.2 2 Norte 7 Oeste 0 -- -- 99
2019-12-02 23:00:00 3.3 2 Sur 8 Sudoeste 0.2 -- -- 99
2019-12-02 22:00:00 3.5 3 Sudoeste 11 Este 0 -- -- 100
2019-12-02 21:00:00 3.7 3 Nordeste 13 Nordeste 0 -- -- 100
2019-12-02 20:00:00 3.7 2 Oeste 8 Sudoeste 0 -- -- 99
2019-12-02 19:00:00 3.8 3 Sur 10 Este 0 -- -- 100
2019-12-02 18:00:00 4.1 4 Este 14 Nordeste 0.2 -- -- 100
2019-12-02 17:00:00 4.6 3 Nordeste 14 Este 0.2 -- -- 100
2019-12-02 16:00:00 4.9 4 Sudeste 11 Este 0.2 -- -- 100
2019-12-02 15:00:00 5.9 5 Oeste 15 Oeste 0.4 -- -- 98
2019-12-02 14:00:00 6.5 4 Nordeste 17 Nordeste 1 -- -- 98
2019-12-02 13:00:00 7.2 4 Este 14 Este 0 -- -- 94
2019-12-02 12:00:00 7.2 6 Nordeste 15 Nordeste 0 -- -- 93
2019-12-02 11:00:00 6.9 4 Nordeste 12 Nordeste 0 -- -- 95
2019-12-02 10:00:00 6.4 2 Este 15 Nordeste 0.2 -- -- 100
2019-12-02 09:00:00 6.1 0 Calma 10 Nordeste 0 -- -- 100
2019-12-02 08:00:00 6.1 0 Calma 5 Este 0 -- -- 100
2019-12-02 07:00:00 6.1 0 Calma 8 Nordeste 0 -- -- 100
2019-12-02 06:00:00 6 2 Norte 6 Norte 0 -- -- 100
2019-12-02 05:00:00 6 0 Calma 4 Noroeste 0 -- -- 100
2019-12-02 04:00:00 5.5 0 Calma 2 Noroeste 0 -- -- 100
2019-12-02 03:00:00 5.6 0 Calma 2 Noroeste 0 -- -- 100
2019-12-02 02:00:00 5.8 0 Calma 3 Noroeste 0 -- -- 100
2019-12-02 01:00:00 5.7 0 Calma 3 Noroeste 0 -- -- 100
2019-12-02 00:00:00 6 0 Calma 3 Norte 0 -- -- 100
2019-12-01 23:00:00 5.8 0 Calma 2 Noroeste 0 -- -- 100
2019-12-01 22:00:00 6.1 0 Calma 2 Noroeste 0 -- -- 99
2019-12-01 21:00:00 6 0 Calma 2 Noroeste 0 -- -- 99
2019-12-01 20:00:00 6.4 0 Calma 2 Noroeste 0 -- -- 97
2019-12-01 19:00:00 6.2 0 Calma 2 Noroeste 0 -- -- 95
2019-12-01 18:00:00 7.2 0 Calma 4 Noroeste 0 -- -- 89
2019-12-01 17:00:00 9.2 0 Calma 12 Oeste 0 -- -- 80
2019-12-01 16:00:00 11.2 2 Nordeste 13 Este 0 -- -- 72
2019-12-01 15:00:00 11.2 6 Nordeste 13 Este 0 -- -- 70
2019-12-01 14:00:00 11.6 6 Sudoeste 14 Sudoeste 0 -- -- 77
2019-12-01 13:00:00 11.3 7 Sudoeste 15 Sudoeste 0 -- -- 63
2019-12-01 12:00:00 11.3 3 Nordeste 8 Oeste 0 -- -- 76
2019-12-01 11:00:00 8.8 0 Calma 5 Oeste 0 -- -- 92
2019-12-01 10:00:00 5.9 0 Calma 8 Sudoeste 0 -- -- 98
2019-12-01 09:00:00 4.4 0 Calma 5 Noroeste 0 -- -- 100
2019-12-01 08:00:00 4.3 0 Calma 10 Oeste 0 -- -- 99
2019-12-01 07:00:00 4.3 0 Calma 10 Oeste 0 -- -- 99
2019-12-01 06:00:00 4.3 0 Calma 5 Noroeste 0 -- -- 100
2019-12-01 05:00:00 4 0 Calma 3 Oeste 0 -- -- 100
2019-12-01 04:00:00 4.6 0 Calma 4 Noroeste 0 -- -- 100
2019-12-01 03:00:00 4.5 0 Calma 4 Noroeste 0.2 -- -- 100
2019-12-01 02:00:00 4.3 0 Calma 3 Noroeste 0 -- -- 100
2019-12-01 01:00:00 4.6 0 Calma -- -- 0 -- -- 100
2019-12-01 00:00:00 4.5 0 Calma 2 Oeste 0 -- -- 100
2019-11-30 23:00:00 4.8 0 Calma 3 Oeste 0 -- -- 100
2019-11-30 22:00:00 5.9 0 Calma 4 Noroeste 0 -- -- 100
2019-11-30 21:00:00 6.7 3 Noroeste 8 Noroeste 0 -- -- 100
2019-11-30 20:00:00 7.1 0 Calma 9 Noroeste 0 -- -- 100
2019-11-30 19:00:00 7.5 3 Sur 8 Sur 1.6 -- -- 100
2019-11-30 18:00:00 8 0 Calma 4 Nordeste 0.8 -- -- 100
2019-11-30 17:00:00 8.1 0 Calma 5 Este 2.6 -- -- 100
2019-11-30 16:00:00 8.3 2 Este 12 Noroeste 4.4 -- -- 99
2019-11-30 15:00:00 8.6 5 Este 23 Nordeste 9.4 -- -- 98
2019-11-30 14:00:00 10 10 Nordeste 27 Este 4.4 -- -- 95
2019-11-30 13:00:00 12.2 5 Sudoeste 25 Sur 0 -- -- 81
2019-11-30 12:00:00 12.3 13 Sur 38 Sur 0 -- -- 76
2019-11-30 11:00:00 12.5 19 Sur 50 Sur 0 -- -- 75
2019-11-30 10:00:00 11.6 25 Sur 45 Sudoeste 0 -- -- 76
2019-11-30 09:00:00 11.6 20 Sur 49 Sur 0 -- -- 76
2019-11-30 08:00:00 11 21 Sudoeste 48 Sur 0 -- -- 75
2019-11-30 07:00:00 11.2 23 Sudoeste 49 Sudoeste 0 -- -- 75
2019-11-30 06:00:00 11.1 28 Sudoeste 47 Sur 0 -- -- 72
2019-11-30 05:00:00 10.8 23 Sudoeste 42 Sudoeste 0 -- -- 72
2019-11-30 04:00:00 10.7 10 Sudoeste 26 Sur 0 -- -- 73
2019-11-30 03:00:00 10.3 9 Sudoeste 22 Oeste 0 -- -- 79
2019-11-30 02:00:00 9.6 4 Noroeste 16 Sudoeste 0 -- -- 81
2019-11-30 01:00:00 7.9 2 Sudoeste 16 Oeste 0 -- -- 90
2019-11-30 00:00:00 7.8 0 Calma 4 Noroeste 0 -- -- 91
2019-11-29 23:00:00 7.4 2 Nordeste 7 Noroeste 0 -- -- 96
2019-11-29 22:00:00 6.7 0 Calma 3 Este 0 -- -- 98
2019-11-29 21:00:00 6.8 0 Calma 2 Este 0 -- -- 98
2019-11-29 20:00:00 7 0 Calma 4 Este 0 -- -- 97
2019-11-29 19:00:00 7.7 0 Calma 2 Este 0 -- -- 94
2019-11-29 18:00:00 9.1 0 Calma 3 Este 0 -- -- 89
2019-11-29 17:00:00 12 0 Calma 6 Este 0 -- -- 77
2019-11-29 16:00:00 13.3 3 Este 6 Este 0 -- -- 72
2019-11-29 15:00:00 13.4 2 Nordeste 10 Nordeste 0 -- -- 72
2019-11-29 14:00:00 13.8 4 Nordeste 16 Sudoeste 0 -- -- 72
2019-11-29 13:00:00 13.7 4 Sudoeste 9 Sudoeste 0 -- -- 74
2019-11-29 12:00:00 11.8 3 Sudoeste 9 Sur 0 -- -- 87
2019-11-29 11:00:00 10.6 0 Calma 4 Este 0 -- -- 100
2019-11-29 10:00:00 10.1 0 Calma 4 Nordeste 0 -- -- 100
2019-11-29 09:00:00 9.6 0 Calma 4 Norte 0 -- -- 100
2019-11-29 08:00:00 9.8 0 Calma 9 Noroeste 0 -- -- 99
2019-11-29 07:00:00 9.7 0 Calma 7 Noroeste 0 -- -- 98
2019-11-29 06:00:00 10.1 2 Nordeste 7 Nordeste 0 -- -- 100
2019-11-29 05:00:00 10.6 2 Norte 11 Noroeste 0 -- -- 100
2019-11-29 04:00:00 10.6 2 Nordeste 9 Este 0.2 -- -- 100
2019-11-29 03:00:00 10.6 0 Calma 8 Este 1.4 -- -- 100
2019-11-29 02:00:00 10.6 5 Nordeste 14 Norte 0.2 -- -- 100
2019-11-29 01:00:00 10.4 2 Oeste 12 Oeste 0 -- -- 100
2019-11-29 00:00:00 10.1 0 Calma 5 Noroeste 0 -- -- 100
2019-11-28 23:00:00 10 0 Calma 3 Nordeste 0 -- -- 100
2019-11-28 22:00:00 9.2 0 Calma 3 Nordeste 0 -- -- 100
2019-11-28 21:00:00 9 0 Calma 4 Nordeste 0 -- -- 100
2019-11-28 20:00:00 9.1 0 Calma 3 Noroeste 0.2 -- -- 99
2019-11-28 19:00:00 9.4 0 Calma 10 Nordeste 2.6 -- -- 98
2019-11-28 18:00:00 10.4 2 Este 28 Noroeste 1.8 -- -- 94
2019-11-28 17:00:00 13.6 12 Oeste 22 Oeste 0 -- -- 73
2019-11-28 16:00:00 13.1 8 Oeste 24 Sudoeste 0.2 -- -- 76
2019-11-28 15:00:00 13 3 Sudoeste 14 Sur 0 -- -- 77
2019-11-28 14:00:00 12 0 Calma 4 Nordeste 0 -- -- 88
2019-11-28 13:00:00 11.7 3 Noroeste 5 Noroeste 0 -- -- 86
2019-11-28 12:00:00 11 0 Calma 3 Nordeste 0 -- -- 90
2019-11-28 11:00:00 10 0 Calma 3 Nordeste 0 -- -- 95
2019-11-28 10:00:00 9.5 0 Calma 5 Nordeste 0 -- -- 95
2019-11-28 09:00:00 9.2 0 Calma 3 Nordeste 0 -- -- 92
2019-11-28 08:00:00 9.5 0 Calma 5 Noroeste 0 -- -- 88
2019-11-28 07:00:00 9.8 0 Calma 9 Oeste 0 -- -- 86
2019-11-28 06:00:00 11.3 8 Noroeste 30 Noroeste 0 -- -- 74
2019-11-28 05:00:00 10.2 4 Oeste 14 Noroeste 0 -- -- 80
2019-11-28 04:00:00 9 0 Calma 12 Oeste 0 -- -- 84
2019-11-28 03:00:00 10.7 4 Sudoeste 21 Noroeste 0 -- -- 75
2019-11-28 02:00:00 11.4 11 Oeste 26 Oeste 0 -- -- 72
2019-11-28 01:00:00 9.7 7 Oeste 20 Oeste 0 -- -- 84
2019-11-28 00:00:00 8.3 0 Calma 5 Noroeste 0 -- -- 100
2019-11-27 23:00:00 7.9 0 Calma 4 Noroeste 0 -- -- 99
2019-11-27 22:00:00 8.7 0 Calma 4 Oeste 0 -- -- 99
2019-11-27 21:00:00 9 0 Calma 4 Noroeste 0.2 -- -- 99
2019-11-27 20:00:00 9.2 3 Noroeste 9 Noroeste 0 -- -- 97
2019-11-27 19:00:00 9.6 0 Calma 18 Sudoeste 1.2 -- -- 94
2019-11-27 18:00:00 11 9 Oeste 33 Sudoeste 0.2 -- -- 77
2019-11-27 17:00:00 12.4 14 Sudoeste 31 Oeste 0 -- -- 65
2019-11-27 16:00:00 12.9 15 Sudoeste 39 Oeste 0 -- -- 62
2019-11-27 15:00:00 13.1 8 Sudoeste 26 Noroeste 0 -- -- 62
2019-11-27 14:00:00 13.4 11 Oeste 28 Oeste 0 -- -- 59
2019-11-27 06:00:00 -- -- -- -- -- -- -- -- --
2019-11-27 05:00:00 11.9 10 Oeste 29 Oeste 0 -- -- 59
2019-11-27 04:00:00 12.4 7 Oeste 27 Oeste 0 -- -- 61
2019-11-27 03:00:00 12.9 11 Sudoeste 33 Oeste 0 -- -- 61
2019-11-27 02:00:00 13.8 19 Oeste 43 Oeste 0 -- -- 58
2019-11-27 01:00:00 14.5 12 Oeste 42 Oeste 0 -- -- 60
2019-11-27 00:00:00 14.9 9 Oeste 38 Sudoeste 0 -- -- 59
2019-11-26 23:00:00 15.8 22 Oeste 64 Noroeste 0 -- -- 55
2019-11-26 22:00:00 15.6 14 Sudoeste 62 Sur 0 -- -- 59
2019-11-26 21:00:00 15.1 29 Sudoeste 51 Sur 0.4 -- -- 70
2019-11-26 20:00:00 14.5 14 Sudoeste 57 Sur 0 -- -- 74
2019-11-26 19:00:00 14.8 20 Sur 58 Sur 0 -- -- 73
2019-11-26 18:00:00 14.4 13 Sur 47 Sudoeste 0 -- -- 76
2019-11-26 17:00:00 14.4 17 Sur 45 Sudoeste 0 -- -- 76
2019-11-26 16:00:00 14 18 Sur 52 Sudoeste 0 -- -- 76
2019-11-26 15:00:00 13.4 21 Sudoeste 34 Sudoeste 0 -- -- 76
2019-11-26 14:00:00 13.7 13 Sudoeste 37 Sur 0 -- -- 73
2019-11-26 13:00:00 13.5 23 Sudoeste 37 Sudoeste 0 -- -- 72
2019-11-26 12:00:00 15.5 24 Sudoeste 39 Sudoeste 0 -- -- 69
2019-11-26 11:00:00 15.3 14 Sudoeste 30 Sudoeste 0 -- -- 69
2019-11-26 10:00:00 13.9 4 Noroeste 30 Sur 0 -- -- 73
2019-11-26 09:00:00 12.1 13 Sudoeste 38 Sudoeste 0 -- -- 76
2019-11-26 08:00:00 11.7 18 Sur 39 Sudoeste 0 -- -- 76
2019-11-26 07:00:00 11.8 14 Sudoeste 30 Sudoeste 0 -- -- 74
2019-11-26 06:00:00 11.1 11 Sudoeste 23 Sudoeste 0 -- -- 79
2019-11-26 05:00:00 10.9 6 Sudoeste 32 Sudoeste 0 -- -- 79
2019-11-26 04:00:00 11.2 10 Oeste 28 Sudoeste 0 -- -- 77
2019-11-26 03:00:00 10.9 10 Oeste 20 Oeste 0 -- -- 79
2019-11-26 02:00:00 9 3 Oeste 8 Oeste 0 -- -- 90
2019-11-26 01:00:00 10 5 Oeste 13 Oeste 0 -- -- 87
2019-11-26 00:00:00 9 4 Oeste 10 Oeste 0 -- -- 99
2019-11-25 23:00:00 7.6 0 Calma 3 Noroeste 0 -- -- 100
2019-11-25 22:00:00 8.4 0 Calma 3 Noroeste 0 -- -- 99
2019-11-25 21:00:00 9.3 0 Calma 3 Norte 0 -- -- 97
2019-11-25 20:00:00 10.6 0 Calma 4 Norte 0 -- -- 96
2019-11-25 19:00:00 11.2 0 Calma 7 Noroeste 0 -- -- 94
2019-11-25 18:00:00 11.6 0 Calma 8 Este 0 -- -- 93
2019-11-25 17:00:00 12.2 0 Calma 11 Este 0 -- -- 88
2019-11-25 16:00:00 12.9 5 Nordeste 17 Este 0 -- -- 83
2019-11-25 15:00:00 14.4 9 Nordeste 18 Nordeste 0 -- -- 78
2019-11-25 14:00:00 15.2 0 Calma 16 Oeste 0 -- -- 68
2019-11-25 13:00:00 15.5 7 Sudoeste 19 Sudoeste 0 -- -- 66
2019-11-25 12:00:00 14.5 3 Noroeste 6 Noroeste 0 -- -- 84
2019-11-25 11:00:00 11.3 0 Calma 3 Noroeste 0 -- -- 92
2019-11-25 10:00:00 8.5 0 Calma 2 Nordeste 0 -- -- 100
2019-11-25 09:00:00 7.1 0 Calma 4 Nordeste 0 -- -- 100
2019-11-25 08:00:00 7.4 0 Calma 9 Sudoeste 0 -- -- 97
2019-11-25 07:00:00 7.5 4 Sudoeste 11 Sudoeste 0 -- -- 98
2019-11-25 06:00:00 7.2 0 Calma 12 Oeste 0 -- -- 97
2019-11-25 05:00:00 8.1 4 Sudoeste 19 Oeste 0 -- -- 91
2019-11-25 04:00:00 7.9 3 Oeste 12 Oeste 0 -- -- 94
2019-11-25 03:00:00 7.4 0 Calma 15 Sudoeste 0 -- -- 97
2019-11-25 02:00:00 7.7 2 Oeste 9 Noroeste 0.2 -- -- 97
2019-11-25 01:00:00 8.2 5 Oeste 14 Sudoeste 0 -- -- 97
2019-11-25 00:00:00 7.8 6 Oeste 13 Noroeste 0.6 -- -- 99
2019-11-24 23:00:00 7.4 0 Calma 13 Noroeste 1.4 -- -- 98
2019-11-24 22:00:00 8 2 Sudoeste 20 Oeste 1 -- -- 90
2019-11-24 21:00:00 8 5 Oeste 11 Oeste 0 -- -- 80
2019-11-24 20:00:00 7.7 4 Oeste 10 Oeste 0 -- -- 83
2019-11-24 19:00:00 7.2 0 Calma 12 Oeste 0 -- -- 89
2019-11-24 18:00:00 8 2 Oeste 5 Oeste 0 -- -- 85
2019-11-24 17:00:00 9.3 0 Calma 5 Oeste 0 -- -- 85
2019-11-24 16:00:00 9.3 0 Calma 6 Sur 0 -- -- 86
2019-11-24 15:00:00 9 0 Calma 15 Sudoeste 0 -- -- 87
2019-11-24 14:00:00 8.1 6 Sudoeste 19 Sudoeste 0.2 -- -- 91
2019-11-24 13:00:00 8 8 Oeste 17 Sudoeste 0 -- -- 92
2019-11-24 12:00:00 8.1 6 Sudoeste 18 Sudoeste 0 -- -- 93
2019-11-24 11:00:00 7.2 2 Nordeste 5 Nordeste 0 -- -- 100
2019-11-24 10:00:00 6.7 0 Calma 4 Nordeste 1.8 -- -- 100
2019-11-24 09:00:00 6.4 0 Calma 7 Sudeste 1.6 -- -- 100
2019-11-24 08:00:00 6.5 2 Sudeste 14 Sur 2 -- -- 98
2019-11-24 07:00:00 6.5 5 Sudoeste 12 Noroeste 0.8 -- -- 97
2019-11-24 06:00:00 6.3 4 Sudoeste 9 Sur 0 -- -- 99
2019-11-24 05:00:00 6.1 0 Calma 13 Sudoeste 2.6 -- -- 99
2019-11-24 04:00:00 5.9 2 Sur 21 Sudoeste 3.4 -- -- 98
2019-11-24 03:00:00 6 9 Sudoeste 21 Sudoeste 2.2 -- -- 96
2019-11-24 02:00:00 5.6 3 Sur 35 Noroeste 5 -- -- 94
2019-11-24 01:00:00 6.3 6 Norte 21 Noroeste 3.6 -- -- 97
2019-11-24 00:00:00 6.7 5 Oeste 28 Norte 1.6 -- -- 91
2019-11-23 23:00:00 6.8 5 Nordeste 33 Oeste 0.4 -- -- 94
2019-11-23 22:00:00 7 8 Noroeste 22 Noroeste 0.2 -- -- 92
2019-11-23 21:00:00 6.9 5 Sur 18 Noroeste 0.2 -- -- 96
2019-11-23 20:00:00 6.9 4 Nordeste 18 Norte 1.6 -- -- 96
2019-11-23 19:00:00 7.2 6 Sur 15 Sur 1 -- -- 94
2019-11-23 18:00:00 7.4 5 Oeste 22 Noroeste 1.4 -- -- 91
2019-11-23 17:00:00 7.6 3 Oeste 20 Sudoeste 0.4 -- -- 87
2019-11-23 16:00:00 7.7 5 Este 26 Norte 0.2 -- -- 90
2019-11-23 15:00:00 7.4 8 Noroeste 35 Oeste 1.4 -- -- 87
2019-11-23 14:00:00 7.7 10 Noroeste 32 Oeste 0.6 -- -- 88
2019-11-23 13:00:00 7.7 8 Noroeste 30 Norte 0.2 -- -- 91
2019-11-23 12:00:00 7 8 Noroeste 35 Sudoeste 2.4 -- -- 93
2019-11-23 11:00:00 7.1 9 Noroeste 31 Oeste 7 -- -- 95
2019-11-23 10:00:00 7.3 12 Noroeste 33 Sur 6 -- -- 95
2019-11-23 09:00:00 7.3 9 Norte 36 Sudeste 4.6 -- -- 97
2019-11-23 08:00:00 6.8 3 Sur 31 Oeste 4.4 -- -- 96
2019-11-23 07:00:00 7.4 10 Sudoeste 32 Noroeste 2 -- -- 87
2019-11-23 06:00:00 7.5 4 Oeste 18 Sudoeste 1.6 -- -- 92
2019-11-23 05:00:00 8.6 2 Oeste 22 Oeste 1 -- -- 87
2019-11-23 04:00:00 10.7 10 Oeste 32 Oeste 0 -- -- 66
2019-11-23 03:00:00 11 13 Oeste 32 Sudoeste 0 -- -- 63
2019-11-23 02:00:00 10.9 14 Sur 30 Sur 0 -- -- 67
2019-11-23 01:00:00 10.9 12 Sur 32 Sur 0 -- -- 69
2019-11-23 00:00:00 10.6 12 Sudoeste 38 Sur 0 -- -- 75
2019-11-22 23:00:00 10.7 10 Sudoeste 32 Sudoeste 0 -- -- 73
2019-11-22 22:00:00 10.4 9 Sur 24 Sudoeste 0 -- -- 81
2019-11-22 21:00:00 9.5 9 Sur 29 Sudoeste 0 -- -- 89
2019-11-22 20:00:00 9.6 10 Oeste 28 Sudoeste 1.4 -- -- 87
2019-11-22 19:00:00 9.6 7 Sudoeste 31 Sur 3 -- -- 93
2019-11-22 18:00:00 9.7 11 Sur 29 Sudoeste 0 -- -- 87
2019-11-22 17:00:00 9.6 13 Sur 36 Sur 0 -- -- 87
2019-11-22 16:00:00 9.2 21 Sur 57 Sudeste 0.6 -- -- 89
2019-11-22 15:00:00 8.6 15 Sudeste 54 Sur 0.8 -- -- 91
2019-11-22 14:00:00 8.9 21 Sur 56 Sudeste 0 -- -- 86
2019-11-22 13:00:00 8.9 16 Sur 49 Sudeste 0 -- -- 85
2019-11-22 12:00:00 8.6 15 Sudoeste 56 Sudeste 0 -- -- 85
2019-11-22 11:00:00 8.5 20 Sudeste 49 Sudeste 0 -- -- 82
2019-11-22 10:00:00 8.4 15 Sur 48 Sudoeste 0 -- -- 82
2019-11-22 09:00:00 8.3 13 Sur 48 Sudoeste 0 -- -- 81
2019-11-22 08:00:00 8.3 17 Sur 50 Sudoeste 0 -- -- 78
2019-11-22 07:00:00 7.8 14 Sur 46 Sudeste 0 -- -- 80
2019-11-22 06:00:00 7.7 14 Sur 40 Sudeste 0 -- -- 80
2019-11-22 05:00:00 7.6 14 Sur 48 Sur 0 -- -- 80
2019-11-22 04:00:00 7.8 25 Sur 47 Sur 0 -- -- 79
2019-11-22 03:00:00 7.7 22 Sur 43 Sur 0 -- -- 80
2019-11-22 02:00:00 7.5 14 Sur 37 Sur 0 -- -- 80
2019-11-22 01:00:00 7.7 15 Sudoeste 36 Sur 0 -- -- 80
2019-11-22 00:00:00 7.9 15 Sur 36 Sudoeste 0 -- -- 81
2019-11-21 23:00:00 7.7 15 Sur 36 Sur 0 -- -- 81
2019-11-21 22:00:00 7.4 10 Sudoeste 30 Sur 0 -- -- 80
2019-11-21 21:00:00 7.1 4 Noroeste 13 Oeste 0 -- -- 83
2019-11-21 20:00:00 7 3 Sudoeste 11 Sudoeste 0 -- -- 83
2019-11-21 19:00:00 7.2 3 Oeste 9 Sudoeste 0 -- -- 82
2019-11-21 18:00:00 8 3 Sudoeste 13 Sur 0 -- -- 76
2019-11-21 17:00:00 9.5 6 Sudoeste 24 Sur 0 -- -- 70
2019-11-21 16:00:00 10.6 11 Sudoeste 35 Sur 0 -- -- 70
2019-11-21 15:00:00 8.9 15 Sudoeste 29 Sur 0 -- -- 76
2019-11-21 14:00:00 8.5 12 Sur 30 Sudoeste 0 -- -- 75
2019-11-21 13:00:00 8.3 19 Sudoeste 28 Sudoeste 0 -- -- 75
2019-11-21 12:00:00 8.3 16 Sudoeste 28 Sur 0 -- -- 77
2019-11-21 11:00:00 7.9 13 Sudoeste 29 Sur 0 -- -- 76
2019-11-21 10:00:00 7 16 Sudoeste 36 Sur 0 -- -- 82
2019-11-21 09:00:00 6.9 7 Sudoeste 37 Sur 0 -- -- 82
2019-11-21 08:00:00 6.8 18 Sudoeste 41 Sudoeste 0 -- -- 83
2019-11-21 07:00:00 6.4 16 Sur 40 Sudoeste 0 -- -- 86
2019-11-21 06:00:00 6.4 20 Sur 37 Sur 0 -- -- 85
2019-11-21 05:00:00 6.3 18 Sur 40 Sur 0 -- -- 86
2019-11-21 04:00:00 6.4 22 Sur 41 Sudoeste 0 -- -- 86
2019-11-21 03:00:00 6.4 18 Sur 42 Sur 0 -- -- 87
2019-11-21 02:00:00 6.2 14 Sur 40 Sudoeste 0 -- -- 88
2019-11-21 01:00:00 6.1 11 Sudoeste 42 Sudoeste 0 -- -- 86
2019-11-21 00:00:00 6.4 21 Sur 38 Sudoeste 0 -- -- 82
2019-11-20 23:00:00 6.7 14 Sur 37 Sur 0 -- -- 78
2019-11-20 22:00:00 7.2 7 Sur 36 Sur 0 -- -- 76
2019-11-20 21:00:00 7.8 10 Sudoeste 31 Sur 0 -- -- 70
2019-11-20 20:00:00 8.1 18 Sur 36 Sudoeste 0 -- -- 67
2019-11-20 19:00:00 8 23 Sur 41 Sur 0 -- -- 68
2019-11-20 18:00:00 8.2 17 Sur 43 Sudoeste 0 -- -- 66
2019-11-20 17:00:00 8.6 19 Sur 50 Sudoeste 0 -- -- 67
2019-11-20 16:00:00 8.9 27 Sudoeste 53 Sudoeste 0 -- -- 68
2019-11-20 15:00:00 9 24 Sudoeste 48 Sudoeste 0 -- -- 70
2019-11-20 14:00:00 8.2 21 Sur 51 Sur 0 -- -- 71
2019-11-20 13:00:00 7.6 25 Sudoeste 58 Sudoeste 0 -- -- 71
2019-11-20 12:00:00 6.4 26 Sudoeste 52 Sudoeste 0 -- -- 75
2019-11-20 11:00:00 6 22 Sudoeste 53 Sur 0 -- -- 75
2019-11-20 10:00:00 5.8 25 Sudoeste 47 Sur 0 -- -- 76
2019-11-20 09:00:00 5.3 22 Sudoeste 47 Sudoeste 0 -- -- 78
2019-11-20 08:00:00 5.1 16 Sudoeste 39 Sudoeste 0 -- -- 78
2019-11-20 07:00:00 5.2 22 Sudoeste 39 Sudoeste 0 -- -- 79
2019-11-20 06:00:00 5.2 18 Sudoeste 39 Sudoeste 0 -- -- 81
2019-11-20 05:00:00 6 18 Sudoeste 35 Sudoeste 0 -- -- 77
2019-11-20 04:00:00 6.2 8 Sudoeste 32 Sur 0 -- -- 75
2019-11-20 03:00:00 6.1 13 Sudoeste 24 Sudoeste 0 -- -- 71
2019-11-20 02:00:00 5.8 9 Oeste 17 Noroeste 0 -- -- 74
2019-11-20 01:00:00 5.3 5 Oeste 19 Sur 0 -- -- 77
2019-11-20 00:00:00 5.4 7 Oeste 18 Oeste 0 -- -- 77
2019-11-19 23:00:00 5.3 6 Oeste 14 Oeste 0 -- -- 80
2019-11-19 22:00:00 5.5 5 Noroeste 13 Sudoeste 0 -- -- 80
2019-11-19 21:00:00 4.9 5 Oeste 11 Oeste 0 -- -- 85
2019-11-19 20:00:00 3.2 2 Nordeste 8 Noroeste 0 -- -- 98
2019-11-19 19:00:00 3.4 0 Calma 3 Sudoeste 0 -- -- 94
2019-11-19 18:00:00 5.2 0 Calma 2 Sudoeste 0 -- -- 88
2019-11-19 17:00:00 8.8 0 Calma 3 Sudoeste 0 -- -- 76
2019-11-19 16:00:00 10.9 2 Sudoeste 5 Sudoeste 0 -- -- 64
2019-11-19 15:00:00 10.3 2 Oeste 13 Noroeste 0 -- -- 61
2019-11-19 14:00:00 10.6 5 Sudoeste 13 Sudoeste 0 -- -- 62
2019-11-19 13:00:00 9.7 3 Sudoeste 11 Sudoeste 0 -- -- 75
2019-11-19 12:00:00 8.4 4 Sudoeste 7 Sudoeste 0 -- -- 83
2019-11-19 11:00:00 6.3 0 Calma 3 Oeste 0 -- -- 100
2019-11-19 10:00:00 3.7 0 Calma 2 Oeste 0 -- -- 100
2019-11-19 09:00:00 1.3 0 Calma 3 Noroeste 0 -- -- 100
2019-11-19 08:00:00 1.8 0 Calma 2 Noroeste 0 -- -- 100
2019-11-19 07:00:00 2.8 0 Calma 2 Noroeste 0 -- -- 100
2019-11-19 06:00:00 3 0 Calma 4 Oeste 0 -- -- 100
2019-11-19 05:00:00 2.1 0 Calma 2 Oeste 0 -- -- 100
2019-11-19 04:00:00 2 0 Calma 4 Noroeste 0 -- -- 100
2019-11-19 03:00:00 1.9 0 Calma 2 Noroeste 0 -- -- 100
2019-11-19 02:00:00 1.6 0 Calma 2 Noroeste 0 -- -- 100
2019-11-19 01:00:00 1.4 0 Calma 3 Noroeste 0 -- -- 100
2019-11-19 00:00:00 1.2 0 Calma 2 Noroeste 0 -- -- 100
2019-11-18 23:00:00 1.7 0 Calma 2 Noroeste 0 -- -- 100
2019-11-18 22:00:00 2.8 0 Calma 3 Noroeste 0 -- -- 100
2019-11-18 21:00:00 3.6 0 Calma 3 Noroeste 0 -- -- 100
2019-11-18 20:00:00 4.1 0 Calma 3 Noroeste 0.2 -- -- 100
2019-11-18 19:00:00 4.3 0 Calma 4 Noroeste 0.2 -- -- 100
2019-11-18 18:00:00 4.5 0 Calma 3 Noroeste 0.4 -- -- 98
2019-11-18 17:00:00 5.2 0 Calma 5 Oeste 0 -- -- 91
2019-11-18 16:00:00 5.7 0 Calma 10 Oeste 0 -- -- 85
2019-11-18 15:00:00 5.8 0 Calma 13 Nordeste 0 -- -- 87
2019-11-18 14:00:00 5.8 2 Nordeste 12 Nordeste 0 -- -- 89
2019-11-18 13:00:00 5.5 5 Este 10 Nordeste 0 -- -- 91
2019-11-18 12:00:00 5.5 2 Este 9 Nordeste 0 -- -- 92
2019-11-18 11:00:00 4.6 0 Calma 8 Nordeste 0.2 -- -- 100
2019-11-18 10:00:00 3.7 0 Calma 5 Norte 0 -- -- 100
2019-11-18 09:00:00 3.5 0 Calma 5 Nordeste 0 -- -- 100
2019-11-18 08:00:00 3.8 0 Calma 10 Este 0.6 -- -- 100
2019-11-18 07:00:00 4 0 Calma 12 Sudeste 0.6 -- -- 100
2019-11-18 06:00:00 3.6 0 Calma 8 Este 0.6 -- -- 100
2019-11-18 05:00:00 4.3 3 Este 22 Oeste 1.8 -- -- 98
2019-11-18 04:00:00 5.4 4 Sur 10 Noroeste 0.2 -- -- 100
2019-11-18 03:00:00 5.2 2 Sudeste 28 Nordeste 1.4 -- -- 99
2019-11-18 02:00:00 5.6 7 Este 20 Sudeste 1.6 -- -- 100
2019-11-18 01:00:00 5.2 2 Oeste 5 Oeste 4 -- -- 100
2019-11-18 00:00:00 5.3 3 Oeste 16 Norte 2.2 -- -- 96
2019-11-17 23:00:00 5.8 5 Noroeste 24 Nordeste 0.6 -- -- 96
2019-11-17 22:00:00 5.9 0 Calma 7 Norte 0.4 -- -- 100
2019-11-17 21:00:00 5.9 0 Calma 4 Sur 0 -- -- 99
2019-11-17 20:00:00 6.1 0 Calma 6 Sudeste 0 -- -- 99
2019-11-17 19:00:00 6.6 0 Calma 5 Sudeste 0.2 -- -- 97
2019-11-17 18:00:00 6.9 0 Calma 14 Sur 0 -- -- 96
2019-11-17 17:00:00 7.2 4 Este 25 Sudoeste 0.4 -- -- 95
2019-11-17 16:00:00 7.7 10 Oeste 27 Sudoeste 0 -- -- 88
2019-11-17 15:00:00 7.9 13 Sudoeste 30 Sudoeste 0 -- -- 87
2019-11-17 14:00:00 7.6 5 Oeste 17 Sur 1 -- -- 96
2019-11-17 13:00:00 6.7 0 Calma 10 Sudoeste 0.4 -- -- 96
2019-11-17 12:00:00 6.6 2 Oeste 11 Sudoeste 0.4 -- -- 99
2019-11-17 11:00:00 5.7 3 Sur 12 Sudoeste 1 -- -- 100
2019-11-17 10:00:00 5.5 0 Calma 2 Sudoeste 0 -- -- 100
2019-11-17 09:00:00 5.1 0 Calma 3 Sudoeste 0 -- -- 100
2019-11-17 08:00:00 4.6 0 Calma 2 Noroeste 0 -- -- 100
2019-11-17 07:00:00 4.7 0 Calma 4 Noroeste 0.6 -- -- 100
2019-11-17 06:00:00 4.8 0 Calma 7 Oeste 1 -- -- 99
2019-11-17 05:00:00 4.9 5 Sudoeste 18 Sur 1.4 -- -- 97
2019-11-17 04:00:00 4.8 5 Sudoeste 15 Sur 1 -- -- 98
2019-11-17 03:00:00 4.7 8 Sudoeste 18 Sur 0.8 -- -- 97
2019-11-17 02:00:00 4.7 3 Sudoeste 18 Oeste 2 -- -- 95
2019-11-17 01:00:00 5.1 8 Oeste 21 Sudoeste 0.4 -- -- 91
2019-11-17 00:00:00 4.9 8 Sudoeste 22 Sur 0.8 -- -- 94
2019-11-16 23:00:00 5.1 8 Oeste 18 Oeste 0 -- -- 90
2019-11-16 22:00:00 4.4 5 Sudoeste 14 Sur 0.6 -- -- 99
2019-11-16 21:00:00 4.8 2 Sudeste 25 Sudoeste 0.4 -- -- 95
2019-11-16 20:00:00 4.9 6 Sur 30 Sudoeste 0.8 -- -- 96
2019-11-16 19:00:00 4.8 3 Sudeste 14 Sudoeste 0.6 -- -- 97
2019-11-16 18:00:00 4.8 4 Sudeste 22 Sur 2.2 -- -- 95
2019-11-16 17:00:00 4.9 13 Sudoeste 29 Sur 2.2 -- -- 93
2019-11-16 16:00:00 4.5 7 Oeste 20 Noroeste 1.2 -- -- 94
2019-11-16 15:00:00 3.5 5 Oeste 15 Sur 2.2 -- -- 96
2019-11-16 14:00:00 2.9 2 Noroeste 19 Sudoeste 2.6 -- -- 98
2019-11-16 13:00:00 2 0 Calma 18 Noroeste 5 -- -- 98
2019-11-16 12:00:00 2.9 8 Oeste 21 Oeste 5.4 -- -- 96
2019-11-16 11:00:00 3.2 5 Oeste 23 Sudoeste 4.6 -- -- 100
2019-11-16 10:00:00 2.8 0 Calma 8 Oeste 1.2 -- -- 100
2019-11-16 09:00:00 1.7 3 Oeste 9 Oeste 0 -- -- 100
2019-11-16 08:00:00 0.4 0 Calma 10 Oeste 0 -- -- 100
2019-11-16 07:00:00 0.9 3 Oeste 11 Oeste 0.2 -- -- 100
2019-11-16 06:00:00 -0.2 0 Calma 2 Nordeste 0 -- -- 100
2019-11-16 05:00:00 -0.2 0 Calma 2 Nordeste 0 -- -- 100
2019-11-16 04:00:00 0.2 0 Calma 2 Nordeste 0 -- -- 100
2019-11-16 03:00:00 0.2 0 Calma 2 Nordeste 0.2 -- -- 100
2019-11-16 02:00:00 0.5 0 Calma 2 Norte 0 -- -- 100
2019-11-16 01:00:00 0.4 0 Calma 2 Norte 0.6 -- -- 100
2019-11-16 00:00:00 0.3 0 Calma 2 Norte 0 -- -- 100
2019-11-15 23:00:00 0.3 0 Calma 2 Norte 0.6 -- -- 100
2019-11-15 22:00:00 0.4 0 Calma 4 Norte 0.6 -- -- 100
2019-11-15 21:00:00 0.4 0 Calma 2 Este 1.4 -- -- 100
2019-11-15 20:00:00 0.5 0 Calma 5 Este 1.2 -- -- 100
2019-11-15 19:00:00 1.1 0 Calma 9 Sudeste 4 -- -- 98
2019-11-15 18:00:00 3.1 3 Nordeste 17 Sur 2.4 -- -- 97
2019-11-15 17:00:00 4.1 4 Noroeste 10 Noroeste 1.6 -- -- 93
2019-11-15 16:00:00 5.1 2 Noroeste 12 Noroeste 0.8 -- -- 95
2019-11-15 15:00:00 5.7 3 Oeste 8 Este 0 -- -- 88
2019-11-15 14:00:00 6.4 3 Sur 15 Noroeste 0 -- -- 94
2019-11-15 13:00:00 5.5 5 Sudoeste 20 Oeste 0.6 -- -- 95
2019-11-15 12:00:00 4.9 6 Sur 23 Sur 0.8 -- -- 99
2019-11-15 11:00:00 3.8 10 Oeste 39 Oeste 2.8 -- -- 93
2019-11-15 10:00:00 4.3 8 Noroeste 29 Oeste 1 -- -- 89
2019-11-15 09:00:00 4.3 12 Oeste 32 Sur 0.6 -- -- 89
2019-11-15 08:00:00 3.9 9 Oeste 21 Sudoeste 0.8 -- -- 90
2019-11-15 07:00:00 3.8 9 Sudoeste 22 Sur 0.8 -- -- 91
2019-11-15 06:00:00 4.2 5 Sudoeste 27 Sur 0.6 -- -- 87
2019-11-15 05:00:00 4.1 5 Oeste 18 Oeste 0 -- -- 85
2019-11-15 04:00:00 3.7 3 Sudoeste 8 Oeste 0 -- -- 93
2019-11-15 03:00:00 3.8 4 Sudoeste 12 Noroeste 0 -- -- 91
2019-11-15 02:00:00 4.1 3 Oeste 17 Noroeste 0 -- -- 91
2019-11-15 01:00:00 4 9 Sudoeste 19 Sudoeste 0.2 -- -- 93
2019-11-15 00:00:00 4 3 Oeste 13 Oeste 1.2 -- -- 94
2019-11-14 23:00:00 4.3 5 Sudoeste 11 Sudoeste 0.2 -- -- 95
2019-11-14 22:00:00 4.3 0 Calma 5 Noroeste 0 -- -- 98
2019-11-14 21:00:00 3.9 0 Calma 2 Oeste 0 -- -- 99
2019-11-14 20:00:00 3.4 0 Calma 2 Noroeste 0 -- -- 97
2019-11-14 19:00:00 3.5 0 Calma 4 Noroeste 0 -- -- 93
2019-11-14 18:00:00 4.8 0 Calma 4 Oeste 0 -- -- 81
2019-11-14 17:00:00 7.8 0 Calma 19 Sur 0 -- -- 63
2019-11-14 16:00:00 9.2 4 Sudoeste 15 Oeste 0 -- -- 56
2019-11-14 15:00:00 8.7 6 Sudoeste 20 Sudoeste 0 -- -- 61
2019-11-14 14:00:00 8.8 6 Sudoeste 23 Sur 0 -- -- 61
2019-11-14 13:00:00 7.9 13 Sudoeste 28 Sudoeste 0 -- -- 62
2019-11-14 12:00:00 8.4 5 Sur 24 Sur 0 -- -- 65
2019-11-14 11:00:00 7.2 4 Sudoeste 13 Sudoeste 0 -- -- 70
2019-11-14 10:00:00 3.9 2 Noroeste 7 Oeste 0 -- -- 100
2019-11-14 09:00:00 2.7 0 Calma 12 Sudoeste 0 -- -- 99
2019-11-14 08:00:00 2.9 4 Oeste 18 Sudoeste 0 -- -- 95
2019-11-14 07:00:00 2.6 6 Sudoeste 18 Sudoeste 0.6 -- -- 97
2019-11-14 06:00:00 2.7 5 Oeste 19 Sur 3.6 -- -- 95
2019-11-14 05:00:00 3.8 3 Noroeste 16 Noroeste 4.8 -- -- 96
2019-11-14 04:00:00 4.6 4 Noroeste 13 Noroeste 6 -- -- 96
2019-11-14 03:00:00 5.7 2 Sur 18 Este 5.8 -- -- 97
2019-11-14 02:00:00 7.9 4 Este 19 Sudoeste 0.2 -- -- 91
2019-11-14 01:00:00 10 8 Oeste 27 Noroeste 0 -- -- 71
2019-11-14 00:00:00 7.9 5 Sudoeste 13 Sudoeste 0 -- -- 87
2019-11-13 23:00:00 7.5 2 Noroeste 13 Noroeste 0 -- -- 91
2019-11-13 22:00:00 6.9 3 Oeste 12 Noroeste 0 -- -- 95
2019-11-13 21:00:00 6.3 0 Calma 4 Oeste 0 -- -- 100
2019-11-13 20:00:00 6.2 0 Calma 3 Sudoeste 0 -- -- 99
2019-11-13 19:00:00 6.7 0 Calma 2 Oeste 0 -- -- 95
2019-11-13 18:00:00 7.8 0 Calma 6 Noroeste 0 -- -- 92
2019-11-13 17:00:00 8.7 2 Oeste 13 Noroeste 0 -- -- 85
2019-11-13 16:00:00 9 0 Calma 10 Este 0 -- -- 91
2019-11-13 15:00:00 9.6 3 Nordeste 17 Norte 0 -- -- 88
2019-11-13 14:00:00 10.2 5 Noroeste 17 Noroeste 0 -- -- 84
2019-11-13 13:00:00 9.7 6 Oeste 20 Noroeste 0 -- -- 90
2019-11-13 12:00:00 9 4 Sur 12 Sur 0.4 -- -- 95
2019-11-13 11:00:00 8.1 0 Calma 6 Nordeste 0.2 -- -- 100
2019-11-13 10:00:00 7.5 0 Calma 10 Este 0.4 -- -- 100
2019-11-13 09:00:00 7.5 0 Calma 4 Sur 0.2 -- -- 100
2019-11-13 08:00:00 6.9 2 Sur 8 Oeste 1.6 -- -- 100
2019-11-13 07:00:00 7 3 Nordeste 8 Nordeste 1.2 -- -- 100
2019-11-13 06:00:00 6.8 0 Calma 4 Norte 0 -- -- 100
2019-11-13 05:00:00 6.7 0 Calma 2 Norte 1.8 -- -- 100
2019-11-13 04:00:00 6.6 0 Calma 0 Calma 0.8 -- -- 100
2019-11-13 03:00:00 6.6 0 Calma 3 Norte 0.2 -- -- 100
2019-11-13 02:00:00 6.2 0 Calma 3 Norte 0 -- -- 100
2019-11-13 01:00:00 6.1 0 Calma 4 Noroeste 0.2 -- -- 100
2019-11-13 00:00:00 6.1 0 Calma 2 Norte 0 -- -- 100
2019-11-12 23:00:00 6.3 0 Calma 4 Noroeste 0 -- -- 100
2019-11-12 22:00:00 6.5 0 Calma 3 Noroeste 0 -- -- 100
2019-11-12 21:00:00 6.7 0 Calma 2 Norte 0.2 -- -- 100
2019-11-12 20:00:00 6.9 0 Calma 3 Noroeste 0.2 -- -- 100
2019-11-12 19:00:00 7.1 0 Calma 2 Noroeste 0 -- -- 100
2019-11-12 18:00:00 7.6 0 Calma 3 Nordeste 0 -- -- 99
2019-11-12 17:00:00 8.1 0 Calma 8 Norte 0 -- -- 97
2019-11-12 16:00:00 8.4 2 Norte 5 Norte 0 -- -- 98
2019-11-12 15:00:00 8.4 0 Calma 11 Norte 0 -- -- 96
2019-11-12 14:00:00 8.1 3 Sur 9 Sur 0.2 -- -- 98
2019-11-12 13:00:00 7.8 3 Sudoeste 10 Sudoeste 0.2 -- -- 97
2019-11-12 12:00:00 7.7 5 Sudoeste 20 Sur 0.2 -- -- 96
2019-11-12 11:00:00 7.3 5 Sudoeste 13 Sudoeste 1 -- -- 99
2019-11-12 10:00:00 6.8 4 Noroeste 14 Sur 1 -- -- 98
2019-11-12 09:00:00 6.4 5 Sudoeste 14 Sur 0.8 -- -- 100
2019-11-12 08:00:00 6.3 3 Sudoeste 15 Noroeste 1.4 -- -- 99
2019-11-12 07:00:00 6.1 5 Sudoeste 10 Sudoeste 1.6 -- -- 100
2019-11-12 06:00:00 6.1 3 Oeste 10 Noroeste 2 -- -- 100
2019-11-12 05:00:00 6 3 Sudoeste 8 Sudoeste 0.2 -- -- 100
2019-11-12 04:00:00 5.9 2 Sudoeste 8 Sur 0.4 -- -- 100
2019-11-12 03:00:00 5.8 0 Calma 8 Sudoeste 0.6 -- -- 100
2019-11-12 02:00:00 5.8 2 Sudoeste 6 Sudoeste 1.2 -- -- 100
2019-11-12 01:00:00 5.7 2 Sudoeste 6 Sudoeste 1 -- -- 100
2019-11-12 00:00:00 5.6 0 Calma 5 Sur 0 -- -- 100
2019-11-11 23:00:00 6 0 Calma 8 Sudeste 0 -- -- 100
2019-11-11 22:00:00 6.3 2 Sur 12 Oeste 0.2 -- -- 99
2019-11-11 21:00:00 6.5 4 Sudeste 15 Oeste 0.4 -- -- 99
2019-11-11 20:00:00 6.3 3 Sudeste 28 Oeste 2.2 -- -- 97
2019-11-11 19:00:00 6.9 3 Sudeste 14 Este 0 -- -- 92
2019-11-11 18:00:00 7.3 8 Sur 27 Sur 0 -- -- 90
2019-11-11 17:00:00 7.4 5 Sudeste 15 Sudeste 0 -- -- 92
2019-11-11 16:00:00 7.6 8 Sur 28 Nordeste 0 -- -- 91
2019-11-11 15:00:00 8.1 7 Sur 26 Este 1 -- -- 96
2019-11-11 14:00:00 8.3 6 Sur 22 Oeste 3 -- -- 100
2019-11-11 13:00:00 7.5 4 Sudoeste 10 Sudoeste 1.8 -- -- 100
2019-11-11 12:00:00 7.3 2 Noroeste 5 Noroeste 1 -- -- 100
2019-11-11 11:00:00 6.7 0 Calma 3 Noroeste 0.6 -- -- 100
2019-11-11 10:00:00 5.7 0 Calma 2 Noroeste 0 -- -- 100
2019-11-11 09:00:00 4.6 0 Calma 2 Noroeste 0.2 -- -- 100
2019-11-11 08:00:00 4 0 Calma 3 Noroeste 0 -- -- 100
2019-11-11 07:00:00 3.7 0 Calma 6 Norte 0 -- -- 100
2019-11-11 06:00:00 3.1 0 Calma 2 Noroeste 0 -- -- 100
2019-11-11 05:00:00 2.8 0 Calma 2 Noroeste 0 -- -- 100
2019-11-11 04:00:00 2.8 0 Calma 2 Noroeste 0 -- -- 100
2019-11-11 03:00:00 2.6 0 Calma 3 Norte 0 -- -- 100
2019-11-11 02:00:00 2.5 0 Calma 2 Noroeste 0 -- -- 100
2019-11-11 01:00:00 2.3 0 Calma 3 Noroeste 0 -- -- 100
2019-11-11 00:00:00 2.5 3 Noroeste 5 Noroeste 0.2 -- -- 100